Arganda, Spain
Current Conditions -  °F | °C
As of 12:00 AM on Friday 19 Dec 2014 (Local Time) from LEMD Reporting Station
Clear Clear  
Wind Chill: 36°   Ceiling: Unl
Heat Index: 39°   Visibility: 5mi
Dew Point: 39°   Wind: 5mph
Humidity: 100%   Direction: 360°N
Pressure: 30.42"   Gusts: NA
Location:  40.3°N, 3.44°W
Report Text: LEMD 182300Z 36004KT 8000 NSC 04/04 Q1030 NOSIG
Loading
Personal Weather Stations






























Interactive Weather Map New forecast layout! Learn more

10-Day Weather Forecast

Advertisements
Track Severe Weather on mobile